sensor_id;sensor_type;location;lat;lon;timestamp;P1;durP1;ratioP1;P2;durP2;ratioP2
81229;SDS011;70701;44.452;18.652;2023-12-07T00:01:53;69.57;;;38.37;;
81229;SDS011;70701;44.452;18.652;2023-12-07T00:04:19;77.63;;;42.80;;
81229;SDS011;70701;44.452;18.652;2023-12-07T00:06:44;83.17;;;43.13;;
81229;SDS011;70701;44.452;18.652;2023-12-07T00:09:10;90.83;;;49.47;;
81229;SDS011;70701;44.452;18.652;2023-12-07T00:11:36;88.20;;;44.57;;
81229;SDS011;70701;44.452;18.652;2023-12-07T00:14:01;85.13;;;45.53;;
81229;SDS011;70701;44.452;18.652;2023-12-07T00:16:27;82.43;;;44.63;;
81229;SDS011;70701;44.452;18.652;2023-12-07T00:18:53;87.20;;;47.10;;
81229;SDS011;70701;44.452;18.652;2023-12-07T00:21:18;84.43;;;48.97;;
81229;SDS011;70701;44.452;18.652;2023-12-07T00:23:45;100.33;;;54.23;;
81229;SDS011;70701;44.452;18.652;2023-12-07T00:26:10;112.80;;;56.43;;
81229;SDS011;70701;44.452;18.652;2023-12-07T00:28:36;102.40;;;53.77;;
81229;SDS011;70701;44.452;18.652;2023-12-07T00:31:02;104.37;;;54.07;;
81229;SDS011;70701;44.452;18.652;2023-12-07T00:33:27;78.37;;;42.00;;
81229;SDS011;70701;44.452;18.652;2023-12-07T00:35:53;69.27;;;37.30;;
81229;SDS011;70701;44.452;18.652;2023-12-07T00:38:19;69.03;;;36.53;;
81229;SDS011;70701;44.452;18.652;2023-12-07T00:40:46;66.90;;;36.63;;
81229;SDS011;70701;44.452;18.652;2023-12-07T00:43:12;69.03;;;38.73;;
81229;SDS011;70701;44.452;18.652;2023-12-07T00:45:38;72.77;;;39.63;;
81229;SDS011;70701;44.452;18.652;2023-12-07T00:48:04;72.73;;;39.67;;
81229;SDS011;70701;44.452;18.652;2023-12-07T00:50:30;72.90;;;39.20;;
81229;SDS011;70701;44.452;18.652;2023-12-07T00:52:55;72.43;;;40.40;;
81229;SDS011;70701;44.452;18.652;2023-12-07T00:55:21;87.33;;;44.03;;
81229;SDS011;70701;44.452;18.652;2023-12-07T00:57:47;111.47;;;56.10;;
81229;SDS011;70701;44.452;18.652;2023-12-07T01:00:13;106.97;;;53.10;;
81229;SDS011;70701;44.452;18.652;2023-12-07T01:02:38;105.40;;;53.50;;
81229;SDS011;70701;44.452;18.652;2023-12-07T01:05:05;78.33;;;44.80;;
81229;SDS011;70701;44.452;18.652;2023-12-07T01:07:31;78.27;;;43.20;;
81229;SDS011;70701;44.452;18.652;2023-12-07T01:09:56;86.67;;;44.53;;
81229;SDS011;70701;44.452;18.652;2023-12-07T01:12:22;100.40;;;50.50;;
81229;SDS011;70701;44.452;18.652;2023-12-07T01:14:48;114.07;;;58.80;;
81229;SDS011;70701;44.452;18.652;2023-12-07T01:17:13;114.93;;;61.23;;
81229;SDS011;70701;44.452;18.652;2023-12-07T01:19:39;119.33;;;58.03;;
81229;SDS011;70701;44.452;18.652;2023-12-07T01:22:05;120.37;;;57.60;;
81229;SDS011;70701;44.452;18.652;2023-12-07T01:24:30;115.40;;;57.23;;
81229;SDS011;70701;44.452;18.652;2023-12-07T01:26:56;116.90;;;57.30;;
81229;SDS011;70701;44.452;18.652;2023-12-07T01:29:22;102.73;;;54.10;;
81229;SDS011;70701;44.452;18.652;2023-12-07T01:31:47;92.43;;;49.93;;
81229;SDS011;70701;44.452;18.652;2023-12-07T01:34:15;98.30;;;50.23;;
81229;SDS011;70701;44.452;18.652;2023-12-07T01:36:42;97.37;;;48.53;;
81229;SDS011;70701;44.452;18.652;2023-12-07T01:39:07;85.93;;;46.80;;
81229;SDS011;70701;44.452;18.652;2023-12-07T01:41:37;84.17;;;45.53;;
81229;SDS011;70701;44.452;18.652;2023-12-07T01:44:04;86.90;;;46.17;;
81229;SDS011;70701;44.452;18.652;2023-12-07T01:46:30;80.73;;;41.27;;
81229;SDS011;70701;44.452;18.652;2023-12-07T01:48:56;91.07;;;49.70;;
81229;SDS011;70701;44.452;18.652;2023-12-07T01:51:22;75.77;;;41.17;;
81229;SDS011;70701;44.452;18.652;2023-12-07T01:53:48;72.10;;;40.73;;
81229;SDS011;70701;44.452;18.652;2023-12-07T01:56:15;66.87;;;35.47;;
81229;SDS011;70701;44.452;18.652;2023-12-07T01:58:41;59.20;;;34.83;;
81229;SDS011;70701;44.452;18.652;2023-12-07T02:01:08;67.27;;;37.57;;
81229;SDS011;70701;44.452;18.652;2023-12-07T02:03:37;73.03;;;38.63;;
81229;SDS011;70701;44.452;18.652;2023-12-07T02:06:05;73.23;;;39.43;;
81229;SDS011;70701;44.452;18.652;2023-12-07T02:08:31;88.03;;;45.40;;
81229;SDS011;70701;44.452;18.652;2023-12-07T02:10:57;73.90;;;38.07;;
81229;SDS011;70701;44.452;18.652;2023-12-07T02:13:23;66.40;;;36.93;;
81229;SDS011;70701;44.452;18.652;2023-12-07T02:15:49;78.90;;;38.17;;
81229;SDS011;70701;44.452;18.652;2023-12-07T02:18:17;61.93;;;33.33;;
81229;SDS011;70701;44.452;18.652;2023-12-07T02:23:17;56.93;;;28.17;;
81229;SDS011;70701;44.452;18.652;2023-12-07T02:28:18;46.93;;;26.20;;
81229;SDS011;70701;44.452;18.652;2023-12-07T02:30:44;54.23;;;25.97;;
81229;SDS011;70701;44.452;18.652;2023-12-07T02:33:10;47.83;;;26.97;;
81229;SDS011;70701;44.452;18.652;2023-12-07T02:35:37;41.20;;;23.20;;
81229;SDS011;70701;44.452;18.652;2023-12-07T02:38:05;42.30;;;21.90;;
81229;SDS011;70701;44.452;18.652;2023-12-07T02:40:31;68.37;;;34.07;;
81229;SDS011;70701;44.452;18.652;2023-12-07T02:42:57;64.33;;;34.40;;
81229;SDS011;70701;44.452;18.652;2023-12-07T02:45:24;65.73;;;33.90;;
81229;SDS011;70701;44.452;18.652;2023-12-07T02:47:53;63.30;;;35.10;;
81229;SDS011;70701;44.452;18.652;2023-12-07T02:50:19;80.27;;;44.77;;
81229;SDS011;70701;44.452;18.652;2023-12-07T02:52:45;75.03;;;41.40;;
81229;SDS011;70701;44.452;18.652;2023-12-07T02:55:10;67.53;;;38.00;;
81229;SDS011;70701;44.452;18.652;2023-12-07T02:57:36;49.40;;;28.67;;
81229;SDS011;70701;44.452;18.652;2023-12-07T03:00:03;52.40;;;29.70;;
81229;SDS011;70701;44.452;18.652;2023-12-07T03:02:33;53.90;;;30.03;;
81229;SDS011;70701;44.452;18.652;2023-12-07T03:05:03;51.70;;;28.60;;
81229;SDS011;70701;44.452;18.652;2023-12-07T03:07:29;56.57;;;29.33;;
81229;SDS011;70701;44.452;18.652;2023-12-07T03:09:56;47.17;;;27.67;;
81229;SDS011;70701;44.452;18.652;2023-12-07T03:12:22;49.00;;;28.63;;
81229;SDS011;70701;44.452;18.652;2023-12-07T03:14:48;51.03;;;30.20;;
81229;SDS011;70701;44.452;18.652;2023-12-07T03:17:14;46.20;;;26.17;;
81229;SDS011;70701;44.452;18.652;2023-12-07T03:19:40;48.50;;;26.67;;
81229;SDS011;70701;44.452;18.652;2023-12-07T03:22:07;49.13;;;27.57;;
81229;SDS011;70701;44.452;18.652;2023-12-07T03:24:37;45.63;;;25.27;;
81229;SDS011;70701;44.452;18.652;2023-12-07T03:27:03;51.63;;;27.77;;
81229;SDS011;70701;44.452;18.652;2023-12-07T03:29:30;48.83;;;24.20;;
81229;SDS011;70701;44.452;18.652;2023-12-07T03:31:56;47.07;;;26.03;;
81229;SDS011;70701;44.452;18.652;2023-12-07T03:34:23;49.97;;;26.43;;
81229;SDS011;70701;44.452;18.652;2023-12-07T03:36:49;48.30;;;25.00;;
81229;SDS011;70701;44.452;18.652;2023-12-07T03:39:15;44.30;;;24.27;;
81229;SDS011;70701;44.452;18.652;2023-12-07T03:41:43;36.50;;;21.70;;
81229;SDS011;70701;44.452;18.652;2023-12-07T03:44:10;40.67;;;21.80;;
81229;SDS011;70701;44.452;18.652;2023-12-07T03:46:35;35.70;;;19.97;;
81229;SDS011;70701;44.452;18.652;2023-12-07T03:49:01;38.67;;;21.73;;
81229;SDS011;70701;44.452;18.652;2023-12-07T03:51:27;41.53;;;23.40;;
81229;SDS011;70701;44.452;18.652;2023-12-07T03:53:54;43.43;;;24.23;;
81229;SDS011;70701;44.452;18.652;2023-12-07T03:56:26;34.63;;;21.37;;
81229;SDS011;70701;44.452;18.652;2023-12-07T03:58:54;40.28;;;23.77;;
81229;SDS011;70701;44.452;18.652;2023-12-07T04:01:23;52.27;;;29.47;;
81229;SDS011;70701;44.452;18.652;2023-12-07T04:03:53;41.87;;;27.27;;
81229;SDS011;70701;44.452;18.652;2023-12-07T04:06:20;34.87;;;22.27;;
81229;SDS011;70701;44.452;18.652;2023-12-07T04:08:46;37.43;;;23.53;;
81229;SDS011;70701;44.452;18.652;2023-12-07T04:11:13;35.63;;;22.83;;
81229;SDS011;70701;44.452;18.652;2023-12-07T04:13:40;38.47;;;24.23;;
81229;SDS011;70701;44.452;18.652;2023-12-07T04:16:06;32.73;;;21.53;;
81229;SDS011;70701;44.452;18.652;2023-12-07T04:18:33;29.30;;;19.13;;
81229;SDS011;70701;44.452;18.652;2023-12-07T04:20:58;28.83;;;18.07;;
81229;SDS011;70701;44.452;18.652;2023-12-07T04:23:24;26.40;;;16.93;;
81229;SDS011;70701;44.452;18.652;2023-12-07T04:25:50;27.83;;;17.77;;
81229;SDS011;70701;44.452;18.652;2023-12-07T04:28:16;29.33;;;19.27;;
81229;SDS011;70701;44.452;18.652;2023-12-07T04:30:41;29.67;;;18.27;;
81229;SDS011;70701;44.452;18.652;2023-12-07T04:33:07;27.90;;;18.17;;
81229;SDS011;70701;44.452;18.652;2023-12-07T04:35:33;26.37;;;17.27;;
81229;SDS011;70701;44.452;18.652;2023-12-07T04:38:00;34.17;;;21.67;;
81229;SDS011;70701;44.452;18.652;2023-12-07T04:40:26;38.13;;;24.33;;
81229;SDS011;70701;44.452;18.652;2023-12-07T04:42:52;36.67;;;21.77;;
81229;SDS011;70701;44.452;18.652;2023-12-07T04:45:18;34.70;;;21.93;;
81229;SDS011;70701;44.452;18.652;2023-12-07T04:47:43;36.27;;;23.37;;
81229;SDS011;70701;44.452;18.652;2023-12-07T04:50:10;31.23;;;21.23;;
81229;SDS011;70701;44.452;18.652;2023-12-07T04:52:35;32.40;;;21.67;;
81229;SDS011;70701;44.452;18.652;2023-12-07T04:55:01;31.60;;;21.10;;
81229;SDS011;70701;44.452;18.652;2023-12-07T04:57:29;29.23;;;21.50;;
81229;SDS011;70701;44.452;18.652;2023-12-07T04:59:54;23.43;;;16.67;;
81229;SDS011;70701;44.452;18.652;2023-12-07T05:02:20;21.80;;;14.40;;
81229;SDS011;70701;44.452;18.652;2023-12-07T05:04:46;23.27;;;14.33;;
81229;SDS011;70701;44.452;18.652;2023-12-07T05:07:12;24.10;;;13.23;;
81229;SDS011;70701;44.452;18.652;2023-12-07T05:09:39;24.57;;;13.53;;
81229;SDS011;70701;44.452;18.652;2023-12-07T05:12:06;24.13;;;14.60;;
81229;SDS011;70701;44.452;18.652;2023-12-07T05:14:32;31.50;;;16.97;;
81229;SDS011;70701;44.452;18.652;2023-12-07T05:16:58;34.17;;;18.40;;
81229;SDS011;70701;44.452;18.652;2023-12-07T05:19:24;29.20;;;17.93;;
81229;SDS011;70701;44.452;18.652;2023-12-07T05:21:50;35.47;;;20.37;;
81229;SDS011;70701;44.452;18.652;2023-12-07T05:24:16;32.53;;;17.63;;
81229;SDS011;70701;44.452;18.652;2023-12-07T05:26:43;33.67;;;17.40;;
81229;SDS011;70701;44.452;18.652;2023-12-07T05:29:11;42.77;;;19.20;;
81229;SDS011;70701;44.452;18.652;2023-12-07T05:31:38;43.47;;;21.63;;
81229;SDS011;70701;44.452;18.652;2023-12-07T05:34:04;54.77;;;28.00;;
81229;SDS011;70701;44.452;18.652;2023-12-07T05:36:30;53.90;;;29.83;;
81229;SDS011;70701;44.452;18.652;2023-12-07T05:38:56;56.93;;;32.07;;
81229;SDS011;70701;44.452;18.652;2023-12-07T05:41:22;59.13;;;34.90;;
81229;SDS011;70701;44.452;18.652;2023-12-07T05:43:48;60.30;;;34.20;;
81229;SDS011;70701;44.452;18.652;2023-12-07T05:46:14;53.67;;;29.40;;
81229;SDS011;70701;44.452;18.652;2023-12-07T05:48:41;56.50;;;28.33;;
81229;SDS011;70701;44.452;18.652;2023-12-07T05:51:11;54.77;;;29.10;;
81229;SDS011;70701;44.452;18.652;2023-12-07T05:53:38;47.97;;;25.43;;
81229;SDS011;70701;44.452;18.652;2023-12-07T05:56:04;50.37;;;25.77;;
81229;SDS011;70701;44.452;18.652;2023-12-07T05:58:30;47.07;;;23.73;;
81229;SDS011;70701;44.452;18.652;2023-12-07T06:00:55;48.53;;;27.47;;
81229;SDS011;70701;44.452;18.652;2023-12-07T06:03:22;51.27;;;27.87;;
81229;SDS011;70701;44.452;18.652;2023-12-07T06:05:47;45.80;;;24.13;;
81229;SDS011;70701;44.452;18.652;2023-12-07T06:08:14;47.37;;;24.90;;
81229;SDS011;70701;44.452;18.652;2023-12-07T06:10:40;40.07;;;22.73;;
81229;SDS011;70701;44.452;18.652;2023-12-07T06:13:08;53.17;;;28.70;;
81229;SDS011;70701;44.452;18.652;2023-12-07T06:15:34;54.80;;;29.17;;
81229;SDS011;70701;44.452;18.652;2023-12-07T06:17:59;47.90;;;24.83;;
81229;SDS011;70701;44.452;18.652;2023-12-07T06:20:25;46.47;;;28.53;;
81229;SDS011;70701;44.452;18.652;2023-12-07T06:22:51;51.20;;;31.10;;
81229;SDS011;70701;44.452;18.652;2023-12-07T06:25:17;57.40;;;32.53;;
81229;SDS011;70701;44.452;18.652;2023-12-07T06:27:43;55.50;;;35.30;;
81229;SDS011;70701;44.452;18.652;2023-12-07T06:30:09;60.37;;;38.40;;
81229;SDS011;70701;44.452;18.652;2023-12-07T06:32:36;62.60;;;37.23;;
81229;SDS011;70701;44.452;18.652;2023-12-07T06:35:02;58.93;;;35.17;;
81229;SDS011;70701;44.452;18.652;2023-12-07T06:37:29;67.00;;;37.27;;
81229;SDS011;70701;44.452;18.652;2023-12-07T06:39:55;65.97;;;35.10;;
81229;SDS011;70701;44.452;18.652;2023-12-07T06:42:21;62.07;;;34.87;;
81229;SDS011;70701;44.452;18.652;2023-12-07T06:44:47;62.03;;;33.20;;
81229;SDS011;70701;44.452;18.652;2023-12-07T06:47:14;62.10;;;37.77;;
81229;SDS011;70701;44.452;18.652;2023-12-07T06:49:41;64.47;;;38.97;;
81229;SDS011;70701;44.452;18.652;2023-12-07T06:52:07;62.57;;;38.77;;
81229;SDS011;70701;44.452;18.652;2023-12-07T06:54:33;65.80;;;38.37;;
81229;SDS011;70701;44.452;18.652;2023-12-07T06:56:59;60.43;;;37.03;;
81229;SDS011;70701;44.452;18.652;2023-12-07T06:59:25;61.90;;;34.80;;
81229;SDS011;70701;44.452;18.652;2023-12-07T07:01:50;60.17;;;34.03;;
81229;SDS011;70701;44.452;18.652;2023-12-07T07:04:16;54.10;;;34.03;;
81229;SDS011;70701;44.452;18.652;2023-12-07T07:06:42;62.57;;;35.47;;
81229;SDS011;70701;44.452;18.652;2023-12-07T07:09:08;62.27;;;36.20;;
81229;SDS011;70701;44.452;18.652;2023-12-07T07:11:33;55.33;;;29.47;;
81229;SDS011;70701;44.452;18.652;2023-12-07T07:14:00;60.43;;;30.37;;
81229;SDS011;70701;44.452;18.652;2023-12-07T07:16:26;79.67;;;37.50;;
81229;SDS011;70701;44.452;18.652;2023-12-07T07:18:52;56.60;;;30.13;;
81229;SDS011;70701;44.452;18.652;2023-12-07T07:21:18;55.90;;;27.37;;
81229;SDS011;70701;44.452;18.652;2023-12-07T07:23:45;49.10;;;25.93;;
81229;SDS011;70701;44.452;18.652;2023-12-07T07:26:11;45.57;;;23.77;;
81229;SDS011;70701;44.452;18.652;2023-12-07T07:28:42;45.60;;;24.13;;
81229;SDS011;70701;44.452;18.652;2023-12-07T07:31:08;62.20;;;29.57;;
81229;SDS011;70701;44.452;18.652;2023-12-07T07:33:34;72.20;;;35.10;;
81229;SDS011;70701;44.452;18.652;2023-12-07T07:36:00;51.90;;;30.27;;
81229;SDS011;70701;44.452;18.652;2023-12-07T07:38:25;56.40;;;28.17;;
81229;SDS011;70701;44.452;18.652;2023-12-07T07:40:52;46.83;;;24.90;;
81229;SDS011;70701;44.452;18.652;2023-12-07T07:43:18;46.43;;;24.40;;
81229;SDS011;70701;44.452;18.652;2023-12-07T07:45:43;54.63;;;25.77;;
81229;SDS011;70701;44.452;18.652;2023-12-07T07:48:10;52.47;;;27.30;;
81229;SDS011;70701;44.452;18.652;2023-12-07T07:50:36;62.27;;;31.30;;
81229;SDS011;70701;44.452;18.652;2023-12-07T07:53:02;50.57;;;23.43;;
81229;SDS011;70701;44.452;18.652;2023-12-07T07:55:29;44.20;;;23.30;;
81229;SDS011;70701;44.452;18.652;2023-12-07T07:57:55;61.73;;;27.63;;
81229;SDS011;70701;44.452;18.652;2023-12-07T08:00:21;68.90;;;31.53;;
81229;SDS011;70701;44.452;18.652;2023-12-07T08:02:46;149.53;;;80.13;;
81229;SDS011;70701;44.452;18.652;2023-12-07T08:05:12;85.20;;;47.80;;
81229;SDS011;70701;44.452;18.652;2023-12-07T08:07:39;82.10;;;42.53;;
81229;SDS011;70701;44.452;18.652;2023-12-07T08:10:06;72.33;;;36.10;;
81229;SDS011;70701;44.452;18.652;2023-12-07T08:12:32;66.10;;;36.87;;
81229;SDS011;70701;44.452;18.652;2023-12-07T08:14:58;89.47;;;42.97;;
81229;SDS011;70701;44.452;18.652;2023-12-07T08:17:24;93.67;;;42.83;;
81229;SDS011;70701;44.452;18.652;2023-12-07T08:19:51;109.60;;;50.20;;
81229;SDS011;70701;44.452;18.652;2023-12-07T08:22:17;98.17;;;50.50;;
81229;SDS011;70701;44.452;18.652;2023-12-07T08:24:43;66.53;;;34.93;;
81229;SDS011;70701;44.452;18.652;2023-12-07T08:27:09;62.47;;;31.93;;
81229;SDS011;70701;44.452;18.652;2023-12-07T08:29:36;66.40;;;34.57;;
81229;SDS011;70701;44.452;18.652;2023-12-07T08:32:03;72.53;;;37.87;;
81229;SDS011;70701;44.452;18.652;2023-12-07T08:34:29;68.87;;;36.87;;
81229;SDS011;70701;44.452;18.652;2023-12-07T08:36:55;66.00;;;35.30;;
81229;SDS011;70701;44.452;18.652;2023-12-07T08:39:20;53.67;;;30.07;;
81229;SDS011;70701;44.452;18.652;2023-12-07T08:41:46;62.07;;;31.57;;
81229;SDS011;70701;44.452;18.652;2023-12-07T08:44:12;70.23;;;30.70;;
81229;SDS011;70701;44.452;18.652;2023-12-07T08:46:37;81.77;;;38.70;;
81229;SDS011;70701;44.452;18.652;2023-12-07T08:49:03;78.97;;;41.63;;
81229;SDS011;70701;44.452;18.652;2023-12-07T08:51:29;75.50;;;38.10;;
81229;SDS011;70701;44.452;18.652;2023-12-07T08:53:55;71.83;;;39.10;;
81229;SDS011;70701;44.452;18.652;2023-12-07T08:56:21;79.57;;;43.10;;
81229;SDS011;70701;44.452;18.652;2023-12-07T08:58:47;85.97;;;42.93;;
81229;SDS011;70701;44.452;18.652;2023-12-07T09:01:12;101.40;;;49.53;;
81229;SDS011;70701;44.452;18.652;2023-12-07T09:03:38;119.63;;;57.77;;
81229;SDS011;70701;44.452;18.652;2023-12-07T09:06:04;114.27;;;53.90;;
81229;SDS011;70701;44.452;18.652;2023-12-07T09:08:31;81.93;;;41.13;;
81229;SDS011;70701;44.452;18.652;2023-12-07T09:10:56;69.80;;;35.77;;
81229;SDS011;70701;44.452;18.652;2023-12-07T09:13:22;59.80;;;34.00;;
81229;SDS011;70701;44.452;18.652;2023-12-07T09:15:48;62.50;;;35.83;;
81229;SDS011;70701;44.452;18.652;2023-12-07T09:18:14;84.13;;;46.20;;
81229;SDS011;70701;44.452;18.652;2023-12-07T09:20:39;102.17;;;56.47;;
81229;SDS011;70701;44.452;18.652;2023-12-07T09:23:13;94.30;;;52.17;;
81229;SDS011;70701;44.452;18.652;2023-12-07T09:25:42;106.20;;;54.67;;
81229;SDS011;70701;44.452;18.652;2023-12-07T09:28:08;104.10;;;49.67;;
81229;SDS011;70701;44.452;18.652;2023-12-07T09:30:34;89.77;;;50.13;;
81229;SDS011;70701;44.452;18.652;2023-12-07T09:33:00;75.87;;;42.90;;
81229;SDS011;70701;44.452;18.652;2023-12-07T09:35:29;84.53;;;45.93;;
81229;SDS011;70701;44.452;18.652;2023-12-07T09:37:55;84.80;;;44.13;;
81229;SDS011;70701;44.452;18.652;2023-12-07T09:40:22;75.20;;;41.63;;
81229;SDS011;70701;44.452;18.652;2023-12-07T09:42:49;114.03;;;63.07;;
81229;SDS011;70701;44.452;18.652;2023-12-07T09:45:16;96.13;;;58.10;;
81229;SDS011;70701;44.452;18.652;2023-12-07T09:47:47;112.83;;;64.57;;
81229;SDS011;70701;44.452;18.652;2023-12-07T09:50:17;89.32;;;48.90;;
81229;SDS011;70701;44.452;18.652;2023-12-07T09:52:44;62.60;;;34.17;;
81229;SDS011;70701;44.452;18.652;2023-12-07T09:55:10;64.33;;;32.13;;
81229;SDS011;70701;44.452;18.652;2023-12-07T09:57:39;76.43;;;40.33;;
81229;SDS011;70701;44.452;18.652;2023-12-07T10:00:05;125.43;;;59.10;;
81229;SDS011;70701;44.452;18.652;2023-12-07T10:02:37;82.03;;;42.87;;
81229;SDS011;70701;44.452;18.652;2023-12-07T10:05:07;69.93;;;38.07;;
81229;SDS011;70701;44.452;18.652;2023-12-07T10:07:42;54.70;;;33.23;;
81229;SDS011;70701;44.452;18.652;2023-12-07T10:10:10;62.40;;;34.43;;
81229;SDS011;70701;44.452;18.652;2023-12-07T10:12:50;55.50;;;32.60;;
81229;SDS011;70701;44.452;18.652;2023-12-07T10:15:20;67.73;;;35.07;;
81229;SDS011;70701;44.452;18.652;2023-12-07T10:20:19;74.27;;;40.10;;
81229;SDS011;70701;44.452;18.652;2023-12-07T10:22:49;86.83;;;44.57;;
81229;SDS011;70701;44.452;18.652;2023-12-07T10:25:29;79.43;;;42.63;;
81229;SDS011;70701;44.452;18.652;2023-12-07T10:27:56;67.57;;;36.70;;
81229;SDS011;70701;44.452;18.652;2023-12-07T10:30:22;69.57;;;38.10;;
81229;SDS011;70701;44.452;18.652;2023-12-07T10:32:51;72.13;;;37.87;;
81229;SDS011;70701;44.452;18.652;2023-12-07T10:35:18;73.40;;;40.60;;
81229;SDS011;70701;44.452;18.652;2023-12-07T10:37:44;83.60;;;45.07;;
81229;SDS011;70701;44.452;18.652;2023-12-07T10:40:12;74.33;;;44.23;;
81229;SDS011;70701;44.452;18.652;2023-12-07T10:42:38;76.57;;;42.40;;
81229;SDS011;70701;44.452;18.652;2023-12-07T10:45:07;67.87;;;40.87;;
81229;SDS011;70701;44.452;18.652;2023-12-07T10:47:35;62.77;;;37.10;;
81229;SDS011;70701;44.452;18.652;2023-12-07T10:50:03;56.40;;;34.43;;
81229;SDS011;70701;44.452;18.652;2023-12-07T10:52:45;53.50;;;31.80;;
81229;SDS011;70701;44.452;18.652;2023-12-07T10:55:28;59.80;;;32.17;;
81229;SDS011;70701;44.452;18.652;2023-12-07T10:57:56;52.50;;;29.97;;
81229;SDS011;70701;44.452;18.652;2023-12-07T11:00:25;54.50;;;32.53;;
81229;SDS011;70701;44.452;18.652;2023-12-07T11:02:54;53.10;;;31.27;;
81229;SDS011;70701;44.452;18.652;2023-12-07T11:05:20;56.37;;;32.70;;
81229;SDS011;70701;44.452;18.652;2023-12-07T11:07:52;68.63;;;41.53;;
81229;SDS011;70701;44.452;18.652;2023-12-07T11:10:36;64.03;;;37.67;;
81229;SDS011;70701;44.452;18.652;2023-12-07T11:15:45;75.10;;;47.23;;
81229;SDS011;70701;44.452;18.652;2023-12-07T11:18:11;71.50;;;40.97;;
81229;SDS011;70701;44.452;18.652;2023-12-07T11:20:40;62.93;;;38.67;;
81229;SDS011;70701;44.452;18.652;2023-12-07T11:23:08;62.67;;;37.77;;
81229;SDS011;70701;44.452;18.652;2023-12-07T11:25:35;64.63;;;38.07;;
81229;SDS011;70701;44.452;18.652;2023-12-07T11:28:02;71.47;;;39.93;;
81229;SDS011;70701;44.452;18.652;2023-12-07T11:30:35;89.50;;;43.97;;
81229;SDS011;70701;44.452;18.652;2023-12-07T11:33:05;74.23;;;41.07;;
81229;SDS011;70701;44.452;18.652;2023-12-07T11:35:31;74.17;;;43.10;;
81229;SDS011;70701;44.452;18.652;2023-12-07T11:40:43;76.23;;;41.00;;
81229;SDS011;70701;44.452;18.652;2023-12-07T11:43:36;80.33;;;42.43;;
81229;SDS011;70701;44.452;18.652;2023-12-07T11:45:58;67.47;;;36.17;;
81229;SDS011;70701;44.452;18.652;2023-12-07T11:48:24;71.20;;;37.07;;
81229;SDS011;70701;44.452;18.652;2023-12-07T11:50:54;65.13;;;33.77;;
81229;SDS011;70701;44.452;18.652;2023-12-07T11:53:24;70.15;;;34.25;;
81229;SDS011;70701;44.452;18.652;2023-12-07T11:55:55;70.37;;;35.63;;
81229;SDS011;70701;44.452;18.652;2023-12-07T11:58:25;75.87;;;37.57;;
81229;SDS011;70701;44.452;18.652;2023-12-07T12:00:55;93.83;;;44.67;;
81229;SDS011;70701;44.452;18.652;2023-12-07T12:03:22;86.33;;;43.93;;
81229;SDS011;70701;44.452;18.652;2023-12-07T12:05:48;66.60;;;37.67;;
81229;SDS011;70701;44.452;18.652;2023-12-07T12:08:15;70.10;;;37.57;;
81229;SDS011;70701;44.452;18.652;2023-12-07T12:10:42;56.20;;;28.13;;
81229;SDS011;70701;44.452;18.652;2023-12-07T12:13:08;52.23;;;24.53;;
81229;SDS011;70701;44.452;18.652;2023-12-07T12:15:35;36.77;;;19.43;;
81229;SDS011;70701;44.452;18.652;2023-12-07T12:18:00;36.33;;;21.63;;
81229;SDS011;70701;44.452;18.652;2023-12-07T12:20:27;23.37;;;13.63;;
81229;SDS011;70701;44.452;18.652;2023-12-07T12:22:53;25.93;;;11.67;;
81229;SDS011;70701;44.452;18.652;2023-12-07T12:25:23;19.67;;;11.53;;
81229;SDS011;70701;44.452;18.652;2023-12-07T12:27:52;22.10;;;11.80;;
81229;SDS011;70701;44.452;18.652;2023-12-07T12:30:19;22.77;;;12.67;;
81229;SDS011;70701;44.452;18.652;2023-12-07T12:32:46;19.27;;;12.20;;
81229;SDS011;70701;44.452;18.652;2023-12-07T12:35:15;16.73;;;10.30;;
81229;SDS011;70701;44.452;18.652;2023-12-07T12:37:42;13.73;;;7.80;;
81229;SDS011;70701;44.452;18.652;2023-12-07T12:40:11;14.20;;;9.23;;
81229;SDS011;70701;44.452;18.652;2023-12-07T12:42:42;17.17;;;11.40;;
81229;SDS011;70701;44.452;18.652;2023-12-07T12:45:09;21.93;;;12.30;;
81229;SDS011;70701;44.452;18.652;2023-12-07T12:47:37;22.23;;;13.43;;
81229;SDS011;70701;44.452;18.652;2023-12-07T12:50:05;29.43;;;19.70;;
81229;SDS011;70701;44.452;18.652;2023-12-07T12:52:31;28.93;;;18.53;;
81229;SDS011;70701;44.452;18.652;2023-12-07T12:54:58;31.43;;;20.97;;
81229;SDS011;70701;44.452;18.652;2023-12-07T12:57:24;28.53;;;17.77;;
81229;SDS011;70701;44.452;18.652;2023-12-07T12:59:50;46.30;;;31.50;;
81229;SDS011;70701;44.452;18.652;2023-12-07T13:02:16;29.40;;;16.63;;
81229;SDS011;70701;44.452;18.652;2023-12-07T13:04:43;30.37;;;20.10;;
81229;SDS011;70701;44.452;18.652;2023-12-07T13:07:11;37.87;;;24.33;;
81229;SDS011;70701;44.452;18.652;2023-12-07T13:09:40;35.67;;;23.83;;
81229;SDS011;70701;44.452;18.652;2023-12-07T13:12:08;40.37;;;24.03;;
81229;SDS011;70701;44.452;18.652;2023-12-07T13:14:35;31.53;;;19.07;;
81229;SDS011;70701;44.452;18.652;2023-12-07T13:17:03;49.97;;;32.10;;
81229;SDS011;70701;44.452;18.652;2023-12-07T13:19:29;23.63;;;14.60;;
81229;SDS011;70701;44.452;18.652;2023-12-07T13:21:55;98.03;;;44.03;;
81229;SDS011;70701;44.452;18.652;2023-12-07T13:24:21;38.70;;;19.50;;
81229;SDS011;70701;44.452;18.652;2023-12-07T13:26:46;25.93;;;16.30;;
81229;SDS011;70701;44.452;18.652;2023-12-07T13:29:12;25.37;;;15.30;;
81229;SDS011;70701;44.452;18.652;2023-12-07T13:31:38;22.43;;;13.10;;
81229;SDS011;70701;44.452;18.652;2023-12-07T13:34:04;21.50;;;13.83;;
81229;SDS011;70701;44.452;18.652;2023-12-07T13:36:30;22.33;;;13.93;;
81229;SDS011;70701;44.452;18.652;2023-12-07T13:38:58;20.47;;;13.03;;
81229;SDS011;70701;44.452;18.652;2023-12-07T13:41:27;22.87;;;11.83;;
81229;SDS011;70701;44.452;18.652;2023-12-07T13:43:53;18.53;;;11.63;;
81229;SDS011;70701;44.452;18.652;2023-12-07T13:46:19;29.40;;;15.80;;
81229;SDS011;70701;44.452;18.652;2023-12-07T13:48:44;23.47;;;13.00;;
81229;SDS011;70701;44.452;18.652;2023-12-07T13:51:10;28.53;;;15.97;;
81229;SDS011;70701;44.452;18.652;2023-12-07T13:53:36;35.37;;;23.73;;
81229;SDS011;70701;44.452;18.652;2023-12-07T13:56:03;35.43;;;21.37;;
81229;SDS011;70701;44.452;18.652;2023-12-07T13:58:30;27.93;;;17.30;;
81229;SDS011;70701;44.452;18.652;2023-12-07T14:00:56;30.03;;;18.87;;
81229;SDS011;70701;44.452;18.652;2023-12-07T14:03:21;33.73;;;18.33;;
81229;SDS011;70701;44.452;18.652;2023-12-07T14:05:48;36.73;;;19.90;;
81229;SDS011;70701;44.452;18.652;2023-12-07T14:08:14;47.73;;;25.67;;
81229;SDS011;70701;44.452;18.652;2023-12-07T14:10:40;42.77;;;24.07;;
81229;SDS011;70701;44.452;18.652;2023-12-07T14:13:05;38.63;;;23.53;;
81229;SDS011;70701;44.452;18.652;2023-12-07T14:15:31;39.63;;;20.97;;
81229;SDS011;70701;44.452;18.652;2023-12-07T14:18:01;30.40;;;17.20;;
81229;SDS011;70701;44.452;18.652;2023-12-07T14:20:27;40.50;;;20.83;;